sensor_id;sensor_type;location;lat;lon;timestamp;temperature;humidity
20372;DHT22;63562;30.520;-97.766;2022-10-16T00:02:18;28.60;99.90
20372;DHT22;63562;30.520;-97.766;2022-10-16T00:04:49;28.60;99.90
20372;DHT22;63562;30.520;-97.766;2022-10-16T00:07:19;28.60;99.90
20372;DHT22;63562;30.520;-97.766;2022-10-16T00:09:51;28.60;99.90
20372;DHT22;63562;30.520;-97.766;2022-10-16T00:12:21;28.50;99.90
20372;DHT22;63562;30.520;-97.766;2022-10-16T00:14:51;28.50;99.90
20372;DHT22;63562;30.520;-97.766;2022-10-16T00:17:22;28.50;99.90
20372;DHT22;63562;30.520;-97.766;2022-10-16T00:19:52;28.40;99.90
20372;DHT22;63562;30.520;-97.766;2022-10-16T00:22:23;28.40;99.90
20372;DHT22;63562;30.520;-97.766;2022-10-16T00:24:56;28.20;99.90
20372;DHT22;63562;30.520;-97.766;2022-10-16T00:27:25;28.30;99.90
20372;DHT22;63562;30.520;-97.766;2022-10-16T00:29:54;28.40;99.90
20372;DHT22;63562;30.520;-97.766;2022-10-16T00:32:29;28.40;99.90
20372;DHT22;63562;30.520;-97.766;2022-10-16T00:35:01;28.30;99.90
20372;DHT22;63562;30.520;-97.766;2022-10-16T00:37:32;28.20;99.90
20372;DHT22;63562;30.520;-97.766;2022-10-16T00:40:04;28.00;99.90
20372;DHT22;63562;30.520;-97.766;2022-10-16T00:42:36;28.10;99.90
20372;DHT22;63562;30.520;-97.766;2022-10-16T00:45:08;28.10;99.90
20372;DHT22;63562;30.520;-97.766;2022-10-16T00:47:46;28.10;99.90
20372;DHT22;63562;30.520;-97.766;2022-10-16T00:50:28;28.10;99.90
20372;DHT22;63562;30.520;-97.766;2022-10-16T00:53:00;27.90;99.90
20372;DHT22;63562;30.520;-97.766;2022-10-16T00:55:31;27.90;99.90
20372;DHT22;63562;30.520;-97.766;2022-10-16T00:58:03;28.00;99.90
20372;DHT22;63562;30.520;-97.766;2022-10-16T01:00:34;28.10;99.90
20372;DHT22;63562;30.520;-97.766;2022-10-16T01:03:36;28.00;99.90
20372;DHT22;63562;30.520;-97.766;2022-10-16T01:14:48;27.70;99.90
20372;DHT22;63562;30.520;-97.766;2022-10-16T01:17:55;27.60;99.90
20372;DHT22;63562;30.520;-97.766;2022-10-16T01:31:25;27.40;99.90
20372;DHT22;63562;30.520;-97.766;2022-10-16T01:34:18;27.40;99.90
20372;DHT22;63562;30.520;-97.766;2022-10-16T01:36:56;27.40;99.90
20372;DHT22;63562;30.520;-97.766;2022-10-16T01:39:31;27.30;99.90
20372;DHT22;63562;30.520;-97.766;2022-10-16T01:42:16;27.30;99.90
20372;DHT22;63562;30.520;-97.766;2022-10-16T01:44:48;27.30;99.90
20372;DHT22;63562;30.520;-97.766;2022-10-16T01:47:22;27.40;99.90
20372;DHT22;63562;30.520;-97.766;2022-10-16T01:49:55;27.20;99.90
20372;DHT22;63562;30.520;-97.766;2022-10-16T01:52:28;27.30;99.90
20372;DHT22;63562;30.520;-97.766;2022-10-16T01:55:00;27.30;99.90
20372;DHT22;63562;30.520;-97.766;2022-10-16T01:57:37;27.20;99.90
20372;DHT22;63562;30.520;-97.766;2022-10-16T02:00:12;27.10;99.90
20372;DHT22;63562;30.520;-97.766;2022-10-16T02:02:47;27.10;99.90
20372;DHT22;63562;30.520;-97.766;2022-10-16T02:08:09;27.00;99.90
20372;DHT22;63562;30.520;-97.766;2022-10-16T02:10:40;27.00;99.90
20372;DHT22;63562;30.520;-97.766;2022-10-16T02:13:26;26.90;99.90
20372;DHT22;63562;30.520;-97.766;2022-10-16T02:15:57;27.00;99.90
20372;DHT22;63562;30.520;-97.766;2022-10-16T02:18:27;26.90;99.90
20372;DHT22;63562;30.520;-97.766;2022-10-16T02:21:14;26.90;99.90
20372;DHT22;63562;30.520;-97.766;2022-10-16T02:24:08;26.90;99.90
20372;DHT22;63562;30.520;-97.766;2022-10-16T02:26:41;26.90;99.90
20372;DHT22;63562;30.520;-97.766;2022-10-16T02:29:15;26.90;99.90
20372;DHT22;63562;30.520;-97.766;2022-10-16T02:31:50;26.80;99.90
20372;DHT22;63562;30.520;-97.766;2022-10-16T02:34:22;26.80;99.90
20372;DHT22;63562;30.520;-97.766;2022-10-16T02:36:57;26.80;99.90
20372;DHT22;63562;30.520;-97.766;2022-10-16T02:39:30;26.70;99.90
20372;DHT22;63562;30.520;-97.766;2022-10-16T02:42:01;26.80;99.90
20372;DHT22;63562;30.520;-97.766;2022-10-16T02:44:32;26.70;99.90
20372;DHT22;63562;30.520;-97.766;2022-10-16T02:47:01;26.70;99.90
20372;DHT22;63562;30.520;-97.766;2022-10-16T02:49:31;26.70;99.90
20372;DHT22;63562;30.520;-97.766;2022-10-16T02:52:02;26.70;99.90
20372;DHT22;63562;30.520;-97.766;2022-10-16T02:54:32;26.70;99.90
20372;DHT22;63562;30.520;-97.766;2022-10-16T02:57:05;26.70;99.90
20372;DHT22;63562;30.520;-97.766;2022-10-16T02:59:36;26.70;99.90
20372;DHT22;63562;30.520;-97.766;2022-10-16T03:02:06;26.70;99.90
20372;DHT22;63562;30.520;-97.766;2022-10-16T03:04:38;26.70;99.90
20372;DHT22;63562;30.520;-97.766;2022-10-16T03:07:10;26.60;99.90
20372;DHT22;63562;30.520;-97.766;2022-10-16T03:09:41;26.60;99.90
20372;DHT22;63562;30.520;-97.766;2022-10-16T03:12:11;26.60;99.90
20372;DHT22;63562;30.520;-97.766;2022-10-16T03:14:41;26.60;99.90
20372;DHT22;63562;30.520;-97.766;2022-10-16T03:17:11;26.60;99.90
20372;DHT22;63562;30.520;-97.766;2022-10-16T03:19:42;26.60;99.90
20372;DHT22;63562;30.520;-97.766;2022-10-16T03:22:12;26.50;99.90
20372;DHT22;63562;30.520;-97.766;2022-10-16T03:24:43;26.50;99.90
20372;DHT22;63562;30.520;-97.766;2022-10-16T03:27:14;26.50;99.90
20372;DHT22;63562;30.520;-97.766;2022-10-16T03:29:46;26.50;99.90
20372;DHT22;63562;30.520;-97.766;2022-10-16T03:32:16;26.40;99.90
20372;DHT22;63562;30.520;-97.766;2022-10-16T03:34:45;26.30;99.90
20372;DHT22;63562;30.520;-97.766;2022-10-16T03:37:16;26.40;99.90
20372;DHT22;63562;30.520;-97.766;2022-10-16T03:39:46;26.40;99.90
20372;DHT22;63562;30.520;-97.766;2022-10-16T03:42:17;26.40;99.90
20372;DHT22;63562;30.520;-97.766;2022-10-16T03:44:50;26.30;99.90
20372;DHT22;63562;30.520;-97.766;2022-10-16T03:47:19;26.30;99.90
20372;DHT22;63562;30.520;-97.766;2022-10-16T03:49:52;26.30;99.90
20372;DHT22;63562;30.520;-97.766;2022-10-16T03:52:25;26.30;99.90
20372;DHT22;63562;30.520;-97.766;2022-10-16T03:54:55;26.30;99.90
20372;DHT22;63562;30.520;-97.766;2022-10-16T03:57:27;26.20;99.90
20372;DHT22;63562;30.520;-97.766;2022-10-16T03:59:58;26.10;99.90
20372;DHT22;63562;30.520;-97.766;2022-10-16T04:02:38;26.20;99.90
20372;DHT22;63562;30.520;-97.766;2022-10-16T04:05:08;26.10;99.90
20372;DHT22;63562;30.520;-97.766;2022-10-16T04:07:37;26.00;99.90
20372;DHT22;63562;30.520;-97.766;2022-10-16T04:10:14;26.00;99.90
20372;DHT22;63562;30.520;-97.766;2022-10-16T04:12:44;26.00;99.90
20372;DHT22;63562;30.520;-97.766;2022-10-16T04:15:19;25.90;99.90
20372;DHT22;63562;30.520;-97.766;2022-10-16T04:17:50;26.00;99.90
20372;DHT22;63562;30.520;-97.766;2022-10-16T04:20:21;25.90;99.90
20372;DHT22;63562;30.520;-97.766;2022-10-16T04:22:51;25.80;99.90
20372;DHT22;63562;30.520;-97.766;2022-10-16T04:25:21;25.80;99.90
20372;DHT22;63562;30.520;-97.766;2022-10-16T04:27:54;25.90;99.90
20372;DHT22;63562;30.520;-97.766;2022-10-16T04:30:24;25.90;99.90
20372;DHT22;63562;30.520;-97.766;2022-10-16T04:32:54;25.90;99.90
20372;DHT22;63562;30.520;-97.766;2022-10-16T04:35:25;25.80;99.90
20372;DHT22;63562;30.520;-97.766;2022-10-16T04:37:58;25.70;99.90
20372;DHT22;63562;30.520;-97.766;2022-10-16T04:40:30;25.70;99.90
20372;DHT22;63562;30.520;-97.766;2022-10-16T04:43:05;25.70;99.90
20372;DHT22;63562;30.520;-97.766;2022-10-16T04:45:35;25.60;99.90
20372;DHT22;63562;30.520;-97.766;2022-10-16T04:48:08;25.70;99.90
20372;DHT22;63562;30.520;-97.766;2022-10-16T04:50:41;25.70;99.90
20372;DHT22;63562;30.520;-97.766;2022-10-16T04:53:11;25.60;99.90
20372;DHT22;63562;30.520;-97.766;2022-10-16T04:55:42;25.50;99.90
20372;DHT22;63562;30.520;-97.766;2022-10-16T04:58:15;25.50;99.90
20372;DHT22;63562;30.520;-97.766;2022-10-16T05:00:46;25.50;99.90
20372;DHT22;63562;30.520;-97.766;2022-10-16T05:03:17;25.50;99.90
20372;DHT22;63562;30.520;-97.766;2022-10-16T05:05:49;25.40;99.90
20372;DHT22;63562;30.520;-97.766;2022-10-16T05:08:20;25.40;99.90
20372;DHT22;63562;30.520;-97.766;2022-10-16T05:10:50;25.30;99.90
20372;DHT22;63562;30.520;-97.766;2022-10-16T05:13:20;25.40;99.90
20372;DHT22;63562;30.520;-97.766;2022-10-16T05:15:50;25.20;99.90
20372;DHT22;63562;30.520;-97.766;2022-10-16T05:18:20;25.30;99.90
20372;DHT22;63562;30.520;-97.766;2022-10-16T05:20:50;25.30;99.90
20372;DHT22;63562;30.520;-97.766;2022-10-16T05:23:20;25.30;99.90
20372;DHT22;63562;30.520;-97.766;2022-10-16T05:25:57;25.10;99.90
20372;DHT22;63562;30.520;-97.766;2022-10-16T05:28:29;25.00;99.90
20372;DHT22;63562;30.520;-97.766;2022-10-16T05:31:07;25.10;99.90
20372;DHT22;63562;30.520;-97.766;2022-10-16T05:33:37;25.00;99.90
20372;DHT22;63562;30.520;-97.766;2022-10-16T05:36:08;25.00;99.90
20372;DHT22;63562;30.520;-97.766;2022-10-16T05:38:40;25.00;99.90
20372;DHT22;63562;30.520;-97.766;2022-10-16T05:41:11;25.00;99.90
20372;DHT22;63562;30.520;-97.766;2022-10-16T05:43:41;25.00;99.90
20372;DHT22;63562;30.520;-97.766;2022-10-16T05:46:11;25.00;99.90
20372;DHT22;63562;30.520;-97.766;2022-10-16T05:48:41;25.00;99.90
20372;DHT22;63562;30.520;-97.766;2022-10-16T05:51:13;24.90;99.90
20372;DHT22;63562;30.520;-97.766;2022-10-16T05:53:43;24.90;99.90
20372;DHT22;63562;30.520;-97.766;2022-10-16T05:56:13;24.90;99.90
20372;DHT22;63562;30.520;-97.766;2022-10-16T05:58:43;24.80;99.90
20372;DHT22;63562;30.520;-97.766;2022-10-16T06:01:18;24.80;99.90
20372;DHT22;63562;30.520;-97.766;2022-10-16T06:03:50;24.80;99.90
20372;DHT22;63562;30.520;-97.766;2022-10-16T06:06:22;24.80;99.90
20372;DHT22;63562;30.520;-97.766;2022-10-16T06:08:55;24.70;99.90
20372;DHT22;63562;30.520;-97.766;2022-10-16T06:11:29;24.70;99.90
20372;DHT22;63562;30.520;-97.766;2022-10-16T06:14:01;24.70;99.90
20372;DHT22;63562;30.520;-97.766;2022-10-16T06:16:31;24.70;99.90
20372;DHT22;63562;30.520;-97.766;2022-10-16T06:19:03;24.70;99.90
20372;DHT22;63562;30.520;-97.766;2022-10-16T06:21:36;24.50;99.90
20372;DHT22;63562;30.520;-97.766;2022-10-16T06:24:06;24.50;99.90
20372;DHT22;63562;30.520;-97.766;2022-10-16T06:26:36;24.50;99.90
20372;DHT22;63562;30.520;-97.766;2022-10-16T06:29:08;24.40;99.90
20372;DHT22;63562;30.520;-97.766;2022-10-16T06:31:39;24.50;99.90
20372;DHT22;63562;30.520;-97.766;2022-10-16T06:34:11;24.50;99.90
20372;DHT22;63562;30.520;-97.766;2022-10-16T06:36:41;24.40;99.90
20372;DHT22;63562;30.520;-97.766;2022-10-16T06:39:12;24.40;99.90
20372;DHT22;63562;30.520;-97.766;2022-10-16T06:41:46;24.40;99.90
20372;DHT22;63562;30.520;-97.766;2022-10-16T06:44:16;24.40;99.90
20372;DHT22;63562;30.520;-97.766;2022-10-16T06:46:49;24.40;99.90
20372;DHT22;63562;30.520;-97.766;2022-10-16T06:49:21;24.40;99.90
20372;DHT22;63562;30.520;-97.766;2022-10-16T06:51:51;24.40;99.90
20372;DHT22;63562;30.520;-97.766;2022-10-16T06:54:21;24.30;99.90
20372;DHT22;63562;30.520;-97.766;2022-10-16T06:56:51;24.30;99.90
20372;DHT22;63562;30.520;-97.766;2022-10-16T06:59:24;24.20;99.90
20372;DHT22;63562;30.520;-97.766;2022-10-16T07:01:53;24.30;99.90
20372;DHT22;63562;30.520;-97.766;2022-10-16T07:04:25;24.30;99.90
20372;DHT22;63562;30.520;-97.766;2022-10-16T07:06:56;24.30;99.90
20372;DHT22;63562;30.520;-97.766;2022-10-16T07:09:26;24.30;99.90
20372;DHT22;63562;30.520;-97.766;2022-10-16T07:12:00;24.30;99.90
20372;DHT22;63562;30.520;-97.766;2022-10-16T07:14:33;24.30;99.90
20372;DHT22;63562;30.520;-97.766;2022-10-16T07:17:03;24.30;99.90
20372;DHT22;63562;30.520;-97.766;2022-10-16T07:19:33;24.20;99.90
20372;DHT22;63562;30.520;-97.766;2022-10-16T07:22:03;24.20;99.90
20372;DHT22;63562;30.520;-97.766;2022-10-16T07:24:35;24.30;99.90
20372;DHT22;63562;30.520;-97.766;2022-10-16T07:27:04;24.30;99.90
20372;DHT22;63562;30.520;-97.766;2022-10-16T07:29:33;24.20;99.90
20372;DHT22;63562;30.520;-97.766;2022-10-16T07:32:06;24.10;99.90
20372;DHT22;63562;30.520;-97.766;2022-10-16T07:34:39;24.20;99.90
20372;DHT22;63562;30.520;-97.766;2022-10-16T07:37:09;24.30;99.90
20372;DHT22;63562;30.520;-97.766;2022-10-16T07:39:40;24.20;99.90
20372;DHT22;63562;30.520;-97.766;2022-10-16T07:42:10;24.10;99.90
20372;DHT22;63562;30.520;-97.766;2022-10-16T07:44:40;24.10;99.90
20372;DHT22;63562;30.520;-97.766;2022-10-16T07:47:10;24.10;99.90
20372;DHT22;63562;30.520;-97.766;2022-10-16T07:49:41;24.10;99.90
20372;DHT22;63562;30.520;-97.766;2022-10-16T07:52:11;24.10;99.90
20372;DHT22;63562;30.520;-97.766;2022-10-16T07:54:43;24.20;99.90
20372;DHT22;63562;30.520;-97.766;2022-10-16T07:57:14;24.20;99.90
20372;DHT22;63562;30.520;-97.766;2022-10-16T07:59:48;24.10;99.90
20372;DHT22;63562;30.520;-97.766;2022-10-16T08:02:18;24.10;99.90
20372;DHT22;63562;30.520;-97.766;2022-10-16T08:04:49;24.20;99.90
20372;DHT22;63562;30.520;-97.766;2022-10-16T08:07:19;24.20;99.90
20372;DHT22;63562;30.520;-97.766;2022-10-16T08:09:50;24.20;99.90
20372;DHT22;63562;30.520;-97.766;2022-10-16T08:12:20;24.30;99.90
20372;DHT22;63562;30.520;-97.766;2022-10-16T08:14:51;24.10;99.90
20372;DHT22;63562;30.520;-97.766;2022-10-16T08:17:26;24.10;99.90
20372;DHT22;63562;30.520;-97.766;2022-10-16T08:19:56;24.00;99.90
20372;DHT22;63562;30.520;-97.766;2022-10-16T08:22:28;24.10;99.90
20372;DHT22;63562;30.520;-97.766;2022-10-16T08:25:00;24.00;99.90
20372;DHT22;63562;30.520;-97.766;2022-10-16T08:27:34;24.10;99.90
20372;DHT22;63562;30.520;-97.766;2022-10-16T08:30:06;24.00;99.90
20372;DHT22;63562;30.520;-97.766;2022-10-16T08:32:38;24.00;99.90
20372;DHT22;63562;30.520;-97.766;2022-10-16T08:35:13;24.00;99.90
20372;DHT22;63562;30.520;-97.766;2022-10-16T08:37:45;24.00;99.90
20372;DHT22;63562;30.520;-97.766;2022-10-16T08:40:25;24.10;99.90
20372;DHT22;63562;30.520;-97.766;2022-10-16T08:43:18;24.00;99.90
20372;DHT22;63562;30.520;-97.766;2022-10-16T08:51:36;24.00;99.90
20372;DHT22;63562;30.520;-97.766;2022-10-16T08:54:43;24.10;99.90
20372;DHT22;63562;30.520;-97.766;2022-10-16T08:57:22;24.00;99.90
20372;DHT22;63562;30.520;-97.766;2022-10-16T09:00:00;24.00;99.90
20372;DHT22;63562;30.520;-97.766;2022-10-16T09:02:37;24.00;99.90
20372;DHT22;63562;30.520;-97.766;2022-10-16T09:13:57;24.00;99.90
20372;DHT22;63562;30.520;-97.766;2022-10-16T09:16:39;24.00;99.90
20372;DHT22;63562;30.520;-97.766;2022-10-16T09:22:16;23.90;99.90
20372;DHT22;63562;30.520;-97.766;2022-10-16T09:24:48;23.90;99.90
20372;DHT22;63562;30.520;-97.766;2022-10-16T09:27:17;23.90;99.90
20372;DHT22;63562;30.520;-97.766;2022-10-16T09:29:47;23.90;99.90
20372;DHT22;63562;30.520;-97.766;2022-10-16T09:32:21;23.90;99.90
20372;DHT22;63562;30.520;-97.766;2022-10-16T09:34:55;23.80;99.90
20372;DHT22;63562;30.520;-97.766;2022-10-16T09:37:26;23.90;99.90
20372;DHT22;63562;30.520;-97.766;2022-10-16T09:39:58;23.90;99.90
20372;DHT22;63562;30.520;-97.766;2022-10-16T09:42:37;24.00;99.90
20372;DHT22;63562;30.520;-97.766;2022-10-16T09:45:21;23.90;99.90
20372;DHT22;63562;30.520;-97.766;2022-10-16T09:47:51;23.90;99.90
20372;DHT22;63562;30.520;-97.766;2022-10-16T09:50:26;24.00;99.90
20372;DHT22;63562;30.520;-97.766;2022-10-16T09:53:12;23.90;99.90
20372;DHT22;63562;30.520;-97.766;2022-10-16T09:55:51;24.00;99.90
20372;DHT22;63562;30.520;-97.766;2022-10-16T09:58:24;23.90;99.90
20372;DHT22;63562;30.520;-97.766;2022-10-16T10:00:56;24.00;99.90
20372;DHT22;63562;30.520;-97.766;2022-10-16T10:03:39;23.90;99.90
20372;DHT22;63562;30.520;-97.766;2022-10-16T10:09:00;24.00;99.90
20372;DHT22;63562;30.520;-97.766;2022-10-16T10:11:44;23.90;99.90
20372;DHT22;63562;30.520;-97.766;2022-10-16T10:16:49;23.80;99.90
20372;DHT22;63562;30.520;-97.766;2022-10-16T10:19:23;23.90;99.90
20372;DHT22;63562;30.520;-97.766;2022-10-16T10:21:57;23.90;99.90
20372;DHT22;63562;30.520;-97.766;2022-10-16T10:24:27;23.80;99.90
20372;DHT22;63562;30.520;-97.766;2022-10-16T10:27:06;23.80;99.90
20372;DHT22;63562;30.520;-97.766;2022-10-16T10:35:44;23.80;99.90
20372;DHT22;63562;30.520;-97.766;2022-10-16T10:39:00;23.80;99.90
20372;DHT22;63562;30.520;-97.766;2022-10-16T10:44:07;23.80;99.90
20372;DHT22;63562;30.520;-97.766;2022-10-16T11:00:46;23.70;99.90
20372;DHT22;63562;30.520;-97.766;2022-10-16T11:06:16;23.70;99.90
20372;DHT22;63562;30.520;-97.766;2022-10-16T11:12:11;23.70;99.90
20372;DHT22;63562;30.520;-97.766;2022-10-16T11:17:54;23.70;99.90
20372;DHT22;63562;30.520;-97.766;2022-10-16T11:20:32;23.80;99.90
20372;DHT22;63562;30.520;-97.766;2022-10-16T11:23:28;23.70;99.90
20372;DHT22;63562;30.520;-97.766;2022-10-16T11:26:04;23.70;99.90
20372;DHT22;63562;30.520;-97.766;2022-10-16T11:28:58;23.70;99.90
20372;DHT22;63562;30.520;-97.766;2022-10-16T11:31:42;23.70;99.90
20372;DHT22;63562;30.520;-97.766;2022-10-16T11:34:41;23.70;99.90
20372;DHT22;63562;30.520;-97.766;2022-10-16T11:37:17;23.70;99.90
20372;DHT22;63562;30.520;-97.766;2022-10-16T11:39:50;23.70;99.90
20372;DHT22;63562;30.520;-97.766;2022-10-16T11:42:30;23.70;99.90
20372;DHT22;63562;30.520;-97.766;2022-10-16T11:47:45;23.70;99.90
20372;DHT22;63562;30.520;-97.766;2022-10-16T11:50:38;23.70;99.90
20372;DHT22;63562;30.520;-97.766;2022-10-16T11:55:51;23.70;99.90
20372;DHT22;63562;30.520;-97.766;2022-10-16T11:58:27;23.70;99.90
20372;DHT22;63562;30.520;-97.766;2022-10-16T12:04:35;23.70;99.90
20372;DHT22;63562;30.520;-97.766;2022-10-16T12:07:19;23.70;99.90
20372;DHT22;63562;30.520;-97.766;2022-10-16T12:09:51;23.70;99.90
20372;DHT22;63562;30.520;-97.766;2022-10-16T12:12:42;23.70;99.90
20372;DHT22;63562;30.520;-97.766;2022-10-16T12:15:27;23.70;99.90
20372;DHT22;63562;30.520;-97.766;2022-10-16T12:18:25;23.70;99.90
20372;DHT22;63562;30.520;-97.766;2022-10-16T12:20:56;23.70;99.90
20372;DHT22;63562;30.520;-97.766;2022-10-16T12:23:51;23.70;99.90
20372;DHT22;63562;30.520;-97.766;2022-10-16T12:26:29;23.70;99.90
20372;DHT22;63562;30.520;-97.766;2022-10-16T12:32:44;23.70;99.90
20372;DHT22;63562;30.520;-97.766;2022-10-16T12:35:35;23.60;99.90
20372;DHT22;63562;30.520;-97.766;2022-10-16T12:38:24;23.70;99.90
20372;DHT22;63562;30.520;-97.766;2022-10-16T12:41:05;23.80;99.90
20372;DHT22;63562;30.520;-97.766;2022-10-16T12:43:45;23.80;99.90
20372;DHT22;63562;30.520;-97.766;2022-10-16T12:48:46;23.70;99.90
20372;DHT22;63562;30.520;-97.766;2022-10-16T12:51:37;23.70;99.90
20372;DHT22;63562;30.520;-97.766;2022-10-16T12:54:30;23.60;99.90
20372;DHT22;63562;30.520;-97.766;2022-10-16T13:00:39;23.70;99.90
20372;DHT22;63562;30.520;-97.766;2022-10-16T13:03:27;23.70;99.90
20372;DHT22;63562;30.520;-97.766;2022-10-16T13:06:15;23.70;99.90
20372;DHT22;63562;30.520;-97.766;2022-10-16T13:08:59;23.70;99.90
20372;DHT22;63562;30.520;-97.766;2022-10-16T13:17:26;23.70;99.90
20372;DHT22;63562;30.520;-97.766;2022-10-16T13:20:28;23.80;99.90
20372;DHT22;63562;30.520;-97.766;2022-10-16T13:28:26;23.80;99.90
20372;DHT22;63562;30.520;-97.766;2022-10-16T13:30:59;23.80;99.90
20372;DHT22;63562;30.520;-97.766;2022-10-16T13:33:39;23.80;99.90
20372;DHT22;63562;30.520;-97.766;2022-10-16T13:36:29;23.90;99.90
20372;DHT22;63562;30.520;-97.766;2022-10-16T13:39:33;23.80;99.90
20372;DHT22;63562;30.520;-97.766;2022-10-16T13:42:22;23.90;99.90
20372;DHT22;63562;30.520;-97.766;2022-10-16T13:44:56;23.90;99.90
20372;DHT22;63562;30.520;-97.766;2022-10-16T13:47:30;23.90;99.90
20372;DHT22;63562;30.520;-97.766;2022-10-16T13:52:42;24.00;99.90
20372;DHT22;63562;30.520;-97.766;2022-10-16T13:55:13;24.10;99.90
20372;DHT22;63562;30.520;-97.766;2022-10-16T13:57:44;24.10;99.90
20372;DHT22;63562;30.520;-97.766;2022-10-16T14:00:23;24.00;99.90
20372;DHT22;63562;30.520;-97.766;2022-10-16T14:03:11;24.10;99.90
20372;DHT22;63562;30.520;-97.766;2022-10-16T14:05:57;24.20;99.90
20372;DHT22;63562;30.520;-97.766;2022-10-16T14:08:29;24.20;99.90
20372;DHT22;63562;30.520;-97.766;2022-10-16T14:11:01;24.20;99.90
20372;DHT22;63562;30.520;-97.766;2022-10-16T14:13:37;24.30;99.90
20372;DHT22;63562;30.520;-97.766;2022-10-16T14:16:09;24.30;99.90
20372;DHT22;63562;30.520;-97.766;2022-10-16T14:18:46;24.20;99.90
20372;DHT22;63562;30.520;-97.766;2022-10-16T14:21:24;24.30;99.90
20372;DHT22;63562;30.520;-97.766;2022-10-16T14:23:58;24.30;99.90
20372;DHT22;63562;30.520;-97.766;2022-10-16T14:26:28;24.40;99.90
20372;DHT22;63562;30.520;-97.766;2022-10-16T14:29:14;24.40;99.90
20372;DHT22;63562;30.520;-97.766;2022-10-16T14:31:56;24.50;99.90
20372;DHT22;63562;30.520;-97.766;2022-10-16T14:34:35;24.60;99.90
20372;DHT22;63562;30.520;-97.766;2022-10-16T14:37:27;24.80;99.90
20372;DHT22;63562;30.520;-97.766;2022-10-16T14:40:00;24.80;99.90
20372;DHT22;63562;30.520;-97.766;2022-10-16T14:42:31;24.80;99.90
20372;DHT22;63562;30.520;-97.766;2022-10-16T14:45:00;24.90;99.90
20372;DHT22;63562;30.520;-97.766;2022-10-16T14:47:33;24.90;99.90
20372;DHT22;63562;30.520;-97.766;2022-10-16T14:50:07;24.90;99.90
20372;DHT22;63562;30.520;-97.766;2022-10-16T14:52:38;24.80;99.90
20372;DHT22;63562;30.520;-97.766;2022-10-16T14:55:09;24.80;99.90
20372;DHT22;63562;30.520;-97.766;2022-10-16T14:57:45;24.70;99.90
20372;DHT22;63562;30.520;-97.766;2022-10-16T15:00:21;24.80;99.90
20372;DHT22;63562;30.520;-97.766;2022-10-16T15:02:52;24.80;99.90
20372;DHT22;63562;30.520;-97.766;2022-10-16T15:05:24;24.80;99.90
20372;DHT22;63562;30.520;-97.766;2022-10-16T15:07:58;24.70;99.90
20372;DHT22;63562;30.520;-97.766;2022-10-16T15:10:29;24.60;99.90
20372;DHT22;63562;30.520;-97.766;2022-10-16T15:13:01;24.60;99.90
20372;DHT22;63562;30.520;-97.766;2022-10-16T15:15:44;24.60;99.90
20372;DHT22;63562;30.520;-97.766;2022-10-16T15:18:14;24.60;99.90
20372;DHT22;63562;30.520;-97.766;2022-10-16T15:20:50;24.70;99.90
20372;DHT22;63562;30.520;-97.766;2022-10-16T15:23:22;24.80;99.90
20372;DHT22;63562;30.520;-97.766;2022-10-16T15:25:56;25.10;99.90
20372;DHT22;63562;30.520;-97.766;2022-10-16T15:28:26;25.20;99.90
20372;DHT22;63562;30.520;-97.766;2022-10-16T15:30:57;25.30;99.90
20372;DHT22;63562;30.520;-97.766;2022-10-16T15:33:27;25.40;99.90
20372;DHT22;63562;30.520;-97.766;2022-10-16T15:36:07;25.50;99.90
20372;DHT22;63562;30.520;-97.766;2022-10-16T15:38:39;25.60;99.90
20372;DHT22;63562;30.520;-97.766;2022-10-16T15:41:08;25.70;99.90
20372;DHT22;63562;30.520;-97.766;2022-10-16T15:43:38;25.70;99.90
20372;DHT22;63562;30.520;-97.766;2022-10-16T15:46:11;25.80;99.90
20372;DHT22;63562;30.520;-97.766;2022-10-16T15:48:42;25.90;99.90
20372;DHT22;63562;30.520;-97.766;2022-10-16T15:51:13;26.00;99.90
20372;DHT22;63562;30.520;-97.766;2022-10-16T15:53:44;26.00;99.90
20372;DHT22;63562;30.520;-97.766;2022-10-16T15:56:15;26.00;99.90
20372;DHT22;63562;30.520;-97.766;2022-10-16T15:58:46;26.20;99.90
20372;DHT22;63562;30.520;-97.766;2022-10-16T16:01:17;26.10;99.90
20372;DHT22;63562;30.520;-97.766;2022-10-16T16:03:48;26.00;99.90
20372;DHT22;63562;30.520;-97.766;2022-10-16T16:06:22;26.00;99.90
20372;DHT22;63562;30.520;-97.766;2022-10-16T16:08:53;25.90;99.90
20372;DHT22;63562;30.520;-97.766;2022-10-16T16:11:24;25.80;99.90
20372;DHT22;63562;30.520;-97.766;2022-10-16T16:13:54;25.70;99.90
20372;DHT22;63562;30.520;-97.766;2022-10-16T16:16:25;25.80;99.90
20372;DHT22;63562;30.520;-97.766;2022-10-16T16:18:55;25.80;99.90
20372;DHT22;63562;30.520;-97.766;2022-10-16T16:21:29;25.80;99.90
20372;DHT22;63562;30.520;-97.766;2022-10-16T16:24:01;25.80;99.90
20372;DHT22;63562;30.520;-97.766;2022-10-16T16:26:37;25.80;99.90
20372;DHT22;63562;30.520;-97.766;2022-10-16T16:29:13;25.80;99.90
20372;DHT22;63562;30.520;-97.766;2022-10-16T16:31:46;25.80;99.90
20372;DHT22;63562;30.520;-97.766;2022-10-16T16:34:16;25.90;99.90
20372;DHT22;63562;30.520;-97.766;2022-10-16T16:36:46;26.00;99.90
20372;DHT22;63562;30.520;-97.766;2022-10-16T16:39:16;26.00;99.90
20372;DHT22;63562;30.520;-97.766;2022-10-16T16:41:46;26.00;99.90
20372;DHT22;63562;30.520;-97.766;2022-10-16T16:44:17;26.00;99.90
20372;DHT22;63562;30.520;-97.766;2022-10-16T16:46:48;26.00;99.90
20372;DHT22;63562;30.520;-97.766;2022-10-16T16:49:19;26.00;99.90
20372;DHT22;63562;30.520;-97.766;2022-10-16T16:51:52;26.00;99.90
20372;DHT22;63562;30.520;-97.766;2022-10-16T16:54:26;26.00;99.90
20372;DHT22;63562;30.520;-97.766;2022-10-16T16:56:56;26.20;99.90
20372;DHT22;63562;30.520;-97.766;2022-10-16T16:59:26;26.20;99.90
20372;DHT22;63562;30.520;-97.766;2022-10-16T17:01:57;26.30;99.90
20372;DHT22;63562;30.520;-97.766;2022-10-16T17:04:28;26.30;99.90
20372;DHT22;63562;30.520;-97.766;2022-10-16T17:06:59;26.40;99.90
20372;DHT22;63562;30.520;-97.766;2022-10-16T17:09:33;26.50;99.90
20372;DHT22;63562;30.520;-97.766;2022-10-16T17:12:06;26.60;99.90
20372;DHT22;63562;30.520;-97.766;2022-10-16T17:14:38;26.70;99.90
20372;DHT22;63562;30.520;-97.766;2022-10-16T17:17:08;26.70;99.90
20372;DHT22;63562;30.520;-97.766;2022-10-16T17:19:38;26.80;99.90
20372;DHT22;63562;30.520;-97.766;2022-10-16T17:22:08;26.80;99.90
20372;DHT22;63562;30.520;-97.766;2022-10-16T17:24:38;27.00;99.90
20372;DHT22;63562;30.520;-97.766;2022-10-16T17:27:09;26.90;99.90
20372;DHT22;63562;30.520;-97.766;2022-10-16T17:29:40;27.00;99.90
20372;DHT22;63562;30.520;-97.766;2022-10-16T17:32:10;27.10;99.90
20372;DHT22;63562;30.520;-97.766;2022-10-16T17:34:41;27.10;99.90
20372;DHT22;63562;30.520;-97.766;2022-10-16T17:37:12;27.20;99.90